createdAt,value
2023-03-05T00:00:05.464Z,13.05
2023-03-05T00:00:19.144Z,14.98
2023-03-05T00:00:52.751Z,15.15
2023-03-05T00:01:13.717Z,15.50
2023-03-05T00:01:28.806Z,16.10
2023-03-05T00:01:41.985Z,14.73
2023-03-05T00:01:54.608Z,14.77
2023-03-05T00:02:08.263Z,15.93
2023-03-05T00:02:20.958Z,14.50
2023-03-05T00:02:33.660Z,12.80
2023-03-05T00:02:46.341Z,13.18
2023-03-05T00:02:59.042Z,13.65
2023-03-05T00:03:11.809Z,16.08
2023-03-05T00:03:24.546Z,16.35
2023-03-05T00:03:37.221Z,15.52
2023-03-05T00:03:53.129Z,16.52
2023-03-05T00:04:12.145Z,14.85
2023-03-05T00:04:25.798Z,14.98
2023-03-05T00:04:38.410Z,15.60
2023-03-05T00:04:51.082Z,14.20
2023-03-05T00:05:03.837Z,13.63
2023-03-05T00:05:17.828Z,13.30
2023-03-05T00:05:30.429Z,13.80
2023-03-05T00:05:43.078Z,14.82
2023-03-05T00:05:56.777Z,15.55
2023-03-05T00:06:09.630Z,15.85
2023-03-05T00:06:24.448Z,15.68
2023-03-05T00:06:38.028Z,15.57
2023-03-05T00:06:50.843Z,14.52
2023-03-05T00:07:03.666Z,13.77
2023-03-05T00:07:16.646Z,20.15
2023-03-05T00:07:29.253Z,22.67
2023-03-05T00:07:41.845Z,18.92
2023-03-05T00:07:54.484Z,17.23
2023-03-05T00:08:07.200Z,17.88
2023-03-05T00:08:19.776Z,19.35
2023-03-05T00:08:34.181Z,19.75
2023-03-05T00:08:46.863Z,20.95
2023-03-05T00:09:00.385Z,22.90
2023-03-05T00:09:13.414Z,22.48
2023-03-05T00:09:25.984Z,23.25
2023-03-05T00:09:38.731Z,23.83
2023-03-05T00:09:52.303Z,23.02
2023-03-05T00:10:06.493Z,24.38
2023-03-05T00:10:19.177Z,23.25
2023-03-05T00:10:31.831Z,22.52
2023-03-05T00:10:44.500Z,22.38
2023-03-05T00:10:57.968Z,22.45
2023-03-05T00:11:12.835Z,21.92
2023-03-05T00:11:29.630Z,22.30
2023-03-05T00:11:42.243Z,21.90
2023-03-05T00:11:54.840Z,21.85
2023-03-05T00:12:07.967Z,20.02
2023-03-05T00:12:20.559Z,23.85
2023-03-05T00:12:33.355Z,24.48
2023-03-05T00:12:47.218Z,23.67
2023-03-05T00:12:59.813Z,21.10
2023-03-05T00:13:12.513Z,18.13
2023-03-05T00:13:25.400Z,16.73
2023-03-05T00:13:38.901Z,15.23
2023-03-05T00:13:52.219Z,16.88
2023-03-05T00:14:06.188Z,17.58
2023-03-05T00:14:19.843Z,15.70
2023-03-05T00:14:32.498Z,16.58
2023-03-05T00:14:45.126Z,17.42
2023-03-05T00:14:57.726Z,17.20
2023-03-05T00:15:10.750Z,17.63
2023-03-05T00:15:23.337Z,18.95
2023-03-05T00:15:41.766Z,18.95
2023-03-05T00:15:55.485Z,15.50
2023-03-05T00:16:10.745Z,13.35
2023-03-05T00:16:26.842Z,15.02
2023-03-05T00:16:40.589Z,20.13
2023-03-05T00:16:53.188Z,21.55
2023-03-05T00:17:05.844Z,24.42
2023-03-05T00:17:18.787Z,24.35
2023-03-05T00:17:32.578Z,25.20
2023-03-05T00:17:45.202Z,23.58
2023-03-05T00:17:57.778Z,24.58
2023-03-05T00:18:10.492Z,23.48
2023-03-05T00:18:23.355Z,26.30
2023-03-05T00:18:36.024Z,27.85
2023-03-05T00:18:49.028Z,28.80
2023-03-05T00:19:02.303Z,24.45
2023-03-05T00:19:17.242Z,20.42
2023-03-05T00:19:29.813Z,18.50
2023-03-05T00:19:42.408Z,17.90
2023-03-05T00:19:54.966Z,19.83
2023-03-05T00:20:08.976Z,23.08
2023-03-05T00:20:21.853Z,25.10
2023-03-05T00:20:35.185Z,21.40
2023-03-05T00:20:49.439Z,18.65
2023-03-05T00:21:02.234Z,16.98
2023-03-05T00:21:19.412Z,19.25
2023-03-05T00:21:33.980Z,19.65
2023-03-05T00:21:46.596Z,19.00
2023-03-05T00:21:59.176Z,19.27
2023-03-05T00:22:11.929Z,18.45
2023-03-05T00:22:25.533Z,19.33
2023-03-05T00:22:38.169Z,21.40
2023-03-05T00:22:50.777Z,19.95
2023-03-05T00:23:03.367Z,17.58
2023-03-05T00:23:16.227Z,15.25
2023-03-05T00:23:28.956Z,14.73
2023-03-05T00:23:41.818Z,14.27
2023-03-05T00:23:56.933Z,13.75
2023-03-05T00:24:12.668Z,13.80
2023-03-05T00:24:25.297Z,18.73
2023-03-05T00:24:37.924Z,19.90
2023-03-05T00:24:51.530Z,16.65
2023-03-05T00:25:05.697Z,15.10
2023-03-05T00:25:18.454Z,16.05
2023-03-05T00:25:32.046Z,16.23
2023-03-05T00:25:46.039Z,14.18
2023-03-05T00:26:01.704Z,14.07
2023-03-05T00:26:14.289Z,13.05
2023-03-05T00:26:27.463Z,11.75
2023-03-05T00:26:40.726Z,11.60
2023-03-05T00:26:54.631Z,12.18
2023-03-05T00:27:07.258Z,12.65
2023-03-05T00:27:20.024Z,12.65
2023-03-05T00:27:32.659Z,15.00
2023-03-05T00:27:45.541Z,16.55
2023-03-05T00:27:58.220Z,14.93
2023-03-05T00:28:10.929Z,14.38
2023-03-05T00:28:23.638Z,12.60
2023-03-05T00:28:37.245Z,12.75
2023-03-05T00:28:51.817Z,13.38
2023-03-05T00:29:04.938Z,14.48
2023-03-05T00:29:19.156Z,14.95
2023-03-05T00:29:31.935Z,14.54
2023-03-05T00:29:44.497Z,13.90
2023-03-05T00:29:58.292Z,15.02
2023-03-05T00:30:12.455Z,15.80
2023-03-05T00:30:25.025Z,14.60
2023-03-05T00:30:37.643Z,13.65
2023-03-05T00:30:50.247Z,14.25
2023-03-05T00:31:03.312Z,17.15
2023-03-05T00:31:16.659Z,16.90
2023-03-05T00:31:32.072Z,18.02
2023-03-05T00:31:46.387Z,14.95
2023-03-05T00:31:58.994Z,14.48
2023-03-05T00:32:11.648Z,15.40
2023-03-05T00:32:24.310Z,14.68
2023-03-05T00:32:37.093Z,14.95
2023-03-05T00:32:49.672Z,16.45
2023-03-05T00:33:02.265Z,16.58
2023-03-05T00:33:15.108Z,15.95
2023-03-05T00:33:29.122Z,17.90
2023-03-05T00:33:41.754Z,23.17
2023-03-05T00:33:55.882Z,25.70
2023-03-05T00:34:11.486Z,21.63
2023-03-05T00:34:28.036Z,19.66
2023-03-05T00:34:41.673Z,21.38
2023-03-05T00:34:54.263Z,23.55
2023-03-05T00:35:07.765Z,24.50
2023-03-05T00:35:20.654Z,24.67
2023-03-05T00:35:39.616Z,25.13
2023-03-05T00:35:52.290Z,29.92
2023-03-05T00:36:07.255Z,31.85
2023-03-05T00:36:20.913Z,31.60
2023-03-05T00:36:33.616Z,32.80
2023-03-05T00:36:48.025Z,31.77
2023-03-05T00:37:00.642Z,29.20
2023-03-05T00:37:14.259Z,27.80
2023-03-05T00:37:26.972Z,29.42
2023-03-05T00:37:39.583Z,30.88
2023-03-05T00:37:52.842Z,30.55
2023-03-05T00:38:05.500Z,31.95
2023-03-05T00:38:18.133Z,33.78
2023-03-05T00:38:30.743Z,30.92
2023-03-05T00:38:43.608Z,29.25
2023-03-05T00:38:57.621Z,31.48
2023-03-05T00:39:11.252Z,33.72
2023-03-05T00:39:23.898Z,33.30
2023-03-05T00:39:36.586Z,29.38
2023-03-05T00:39:49.189Z,27.52
2023-03-05T00:40:03.037Z,25.38
2023-03-05T00:40:15.965Z,25.58
2023-03-05T00:40:28.654Z,25.52
2023-03-05T00:40:42.086Z,27.33
2023-03-05T00:40:54.686Z,32.05
2023-03-05T00:41:08.528Z,34.28
2023-03-05T00:41:21.173Z,29.70
2023-03-05T00:41:33.889Z,27.67
2023-03-05T00:41:47.889Z,25.48
2023-03-05T00:42:00.504Z,22.20
2023-03-05T00:42:13.382Z,20.55
2023-03-05T00:42:25.998Z,20.00
2023-03-05T00:42:38.838Z,21.05
2023-03-05T00:42:51.466Z,21.55
2023-03-05T00:43:04.943Z,20.75
2023-03-05T00:43:17.555Z,19.52
2023-03-05T00:43:31.419Z,18.98
2023-03-05T00:43:44.003Z,18.83
2023-03-05T00:43:56.645Z,17.63
2023-03-05T00:44:09.594Z,17.55
2023-03-05T00:44:22.250Z,18.42
2023-03-05T00:44:34.929Z,17.40
2023-03-05T00:44:48.534Z,17.88
2023-03-05T00:45:01.279Z,19.58
2023-03-05T00:45:13.929Z,19.40
2023-03-05T00:45:26.526Z,19.63
2023-03-05T00:45:39.280Z,20.30
2023-03-05T00:45:51.893Z,21.60
2023-03-05T00:46:05.066Z,20.13
2023-03-05T00:46:18.869Z,20.38
2023-03-05T00:46:32.683Z,20.05
2023-03-05T00:46:45.384Z,18.27
2023-03-05T00:46:58.033Z,17.20
2023-03-05T00:47:10.606Z,19.17
2023-03-05T00:47:23.251Z,17.35
2023-03-05T00:47:36.327Z,14.32
2023-03-05T00:47:48.917Z,14.52
2023-03-05T00:48:03.103Z,14.35
2023-03-05T00:48:15.701Z,16.38
2023-03-05T00:48:28.494Z,15.30
2023-03-05T00:48:41.135Z,17.02
2023-03-05T00:48:54.024Z,16.70
2023-03-05T00:49:07.289Z,17.92
2023-03-05T00:49:21.047Z,19.90
2023-03-05T00:49:48.088Z,21.88
2023-03-05T00:50:01.116Z,22.38
2023-03-05T00:50:13.951Z,22.00
2023-03-05T00:50:27.061Z,20.10
2023-03-05T00:50:39.736Z,20.95
2023-03-05T00:50:53.216Z,19.67
2023-03-05T00:51:06.978Z,21.25
2023-03-05T00:51:19.655Z,23.55
2023-03-05T00:51:32.325Z,24.27
2023-03-05T00:51:44.979Z,24.75
2023-03-05T00:51:57.578Z,21.88
2023-03-05T00:52:10.179Z,18.30
2023-03-05T00:52:22.802Z,17.38
2023-03-05T00:52:36.401Z,18.88
2023-03-05T00:52:49.063Z,19.25
2023-03-05T00:53:01.671Z,17.90
2023-03-05T00:53:14.321Z,17.15
2023-03-05T00:53:26.969Z,18.02
2023-03-05T00:53:39.842Z,19.85
2023-03-05T00:53:52.768Z,20.65
2023-03-05T00:54:06.850Z,19.15
2023-03-05T00:54:19.420Z,15.57
2023-03-05T00:54:31.990Z,15.75
2023-03-05T00:54:44.582Z,20.02
2023-03-05T00:54:57.392Z,19.02
2023-03-05T00:55:10.509Z,14.95
2023-03-05T00:55:23.153Z,14.65
2023-03-05T00:55:36.234Z,15.05
2023-03-05T00:55:48.888Z,15.27
2023-03-05T00:56:02.487Z,16.08
2023-03-05T00:56:15.350Z,16.83
2023-03-05T00:56:28.084Z,15.98
2023-03-05T00:56:40.712Z,14.85
2023-03-05T00:56:53.314Z,16.10
2023-03-05T00:57:06.325Z,15.52
2023-03-05T00:57:20.238Z,15.68
2023-03-05T00:57:32.860Z,15.70
2023-03-05T00:57:45.854Z,16.27
2023-03-05T00:57:58.542Z,15.65
2023-03-05T00:58:11.183Z,14.45
2023-03-05T00:58:23.773Z,16.42
2023-03-05T00:58:36.464Z,18.23
2023-03-05T00:58:49.074Z,19.02
2023-03-05T00:59:02.971Z,16.60
2023-03-05T00:59:15.678Z,17.30
2023-03-05T00:59:28.304Z,18.25
2023-03-05T00:59:41.117Z,17.10
2023-03-05T00:59:53.775Z,16.80
2023-03-05T01:00:08.041Z,15.40
2023-03-05T01:00:21.271Z,14.73
2023-03-05T01:00:33.863Z,14.85
2023-03-05T01:00:50.593Z,15.07
2023-03-05T01:01:04.288Z,15.68
2023-03-05T01:01:17.000Z,14.65
2023-03-05T01:01:29.832Z,15.15
2023-03-05T01:01:42.500Z,15.52
2023-03-05T01:01:56.083Z,15.68
2023-03-05T01:02:08.838Z,17.73
2023-03-05T01:02:21.439Z,18.60
2023-03-05T01:02:34.907Z,17.35
2023-03-05T01:02:47.577Z,15.82
2023-03-05T01:03:00.236Z,13.48
2023-03-05T01:03:12.867Z,12.43
2023-03-05T01:03:25.480Z,15.13
2023-03-05T01:03:39.237Z,16.13
2023-03-05T01:03:52.210Z,16.02
2023-03-05T01:04:04.991Z,16.85
2023-03-05T01:04:17.627Z,16.90
2023-03-05T01:04:30.267Z,16.40
2023-03-05T01:04:47.125Z,16.65
2023-03-05T01:04:59.779Z,17.33
2023-03-05T01:05:13.471Z,18.35
2023-03-05T01:05:27.170Z,18.45
2023-03-05T01:05:39.849Z,18.20
2023-03-05T01:05:52.487Z,16.58
2023-03-05T01:06:07.641Z,18.42
2023-03-05T01:06:20.600Z,18.77
2023-03-05T01:06:33.384Z,18.02
2023-03-05T01:06:47.420Z,15.48
2023-03-05T01:07:00.037Z,15.45
2023-03-05T01:07:12.688Z,16.88
2023-03-05T01:07:25.279Z,18.35
2023-03-05T01:07:37.896Z,19.38
2023-03-05T01:07:53.314Z,18.95
2023-03-05T01:08:06.084Z,16.88
2023-03-05T01:08:18.763Z,17.75
2023-03-05T01:08:31.794Z,17.40
2023-03-05T01:08:45.965Z,16.42
2023-03-05T01:08:59.547Z,16.80
2023-03-05T01:09:12.238Z,15.73
2023-03-05T01:09:25.326Z,15.20
2023-03-05T01:09:37.986Z,16.10
2023-03-05T01:09:50.618Z,17.77
2023-03-05T01:10:04.517Z,20.00
2023-03-05T01:10:17.307Z,21.05
2023-03-05T01:10:31.367Z,20.00
2023-03-05T01:10:43.982Z,19.23
2023-03-05T01:10:57.148Z,17.70
2023-03-05T01:11:10.508Z,15.07
2023-03-05T01:11:23.275Z,17.58
2023-03-05T01:11:36.948Z,17.73
2023-03-05T01:11:49.560Z,19.15
2023-03-05T01:12:02.414Z,17.52
2023-03-05T01:12:15.110Z,18.05
2023-03-05T01:12:27.714Z,18.50
2023-03-05T01:12:40.332Z,18.83
2023-03-05T01:12:53.161Z,18.95
2023-03-05T01:13:05.744Z,19.33
2023-03-05T01:13:18.435Z,20.02
2023-03-05T01:13:32.211Z,19.60
2023-03-05T01:13:44.833Z,18.58
2023-03-05T01:13:57.443Z,19.48
2023-03-05T01:14:10.164Z,20.02
2023-03-05T01:14:22.894Z,19.10
2023-03-05T01:14:35.983Z,17.48
2023-03-05T01:14:48.580Z,19.23
2023-03-05T01:15:02.228Z,19.35
2023-03-05T01:15:15.030Z,18.42
2023-03-05T01:15:27.950Z,18.35
2023-03-05T01:15:40.554Z,17.90
2023-03-05T01:15:53.224Z,18.20
2023-03-05T01:16:07.982Z,18.88
2023-03-05T01:16:20.639Z,19.95
2023-03-05T01:16:34.431Z,20.27
2023-03-05T01:16:47.462Z,22.45
2023-03-05T01:17:00.185Z,21.70
2023-03-05T01:17:12.834Z,18.17
2023-03-05T01:17:25.419Z,18.35
2023-03-05T01:17:38.023Z,19.40
2023-03-05T01:17:50.713Z,22.30
2023-03-05T01:18:03.700Z,21.17
2023-03-05T01:18:17.669Z,20.02
2023-03-05T01:18:30.233Z,19.05
2023-03-05T01:18:42.864Z,23.60
2023-03-05T01:18:55.454Z,22.45
2023-03-05T01:19:08.188Z,20.80
2023-03-05T01:19:20.816Z,20.42
2023-03-05T01:19:34.767Z,21.13
2023-03-05T01:19:48.892Z,21.33
2023-03-05T01:20:01.595Z,18.75
2023-03-05T01:20:16.224Z,16.50
2023-03-05T01:20:28.868Z,16.40
2023-03-05T01:20:41.468Z,18.10
2023-03-05T01:20:55.095Z,18.25
2023-03-05T01:21:08.154Z,19.70
2023-03-05T01:21:22.086Z,21.70
2023-03-05T01:21:34.842Z,20.48
2023-03-05T01:21:47.419Z,20.30
2023-03-05T01:22:00.389Z,19.77
2023-03-05T01:22:13.942Z,19.98
2023-03-05T01:22:26.629Z,17.67
2023-03-05T01:22:40.051Z,15.88
2023-03-05T01:22:53.368Z,15.90
2023-03-05T01:23:05.986Z,17.23
2023-03-05T01:23:18.678Z,16.42
2023-03-05T01:23:31.647Z,16.42
2023-03-05T01:23:45.261Z,17.92
2023-03-05T01:23:58.888Z,17.25
2023-03-05T01:24:11.516Z,15.80
2023-03-05T01:24:24.149Z,16.75
2023-03-05T01:24:36.791Z,17.48
2023-03-05T01:24:49.394Z,16.92
2023-03-05T01:25:02.035Z,15.75
2023-03-05T01:25:17.160Z,16.02
2023-03-05T01:25:29.899Z,15.63
2023-03-05T01:25:43.073Z,16.27
2023-03-05T01:25:56.064Z,16.90
2023-03-05T01:26:09.648Z,15.85
2023-03-05T01:26:22.251Z,14.80
2023-03-05T01:26:35.194Z,15.77
2023-03-05T01:26:47.849Z,15.85
2023-03-05T01:27:01.464Z,16.35
2023-03-05T01:27:14.376Z,16.23
2023-03-05T01:27:27.033Z,16.52
2023-03-05T01:27:40.007Z,18.23
2023-03-05T01:27:52.697Z,18.77
2023-03-05T01:28:05.949Z,18.10
2023-03-05T01:28:18.512Z,18.30
2023-03-05T01:28:31.227Z,18.73
2023-03-05T01:28:44.820Z,17.45
2023-03-05T01:28:57.585Z,17.42
2023-03-05T01:29:10.222Z,15.80
2023-03-05T01:29:23.610Z,16.38
2023-03-05T01:29:37.066Z,17.13
2023-03-05T01:29:49.685Z,16.77
2023-03-05T01:30:02.353Z,16.25
2023-03-05T01:30:15.997Z,17.35
2023-03-05T01:30:29.044Z,18.45
2023-03-05T01:30:42.651Z,18.17
2023-03-05T01:30:55.476Z,18.45
2023-03-05T01:31:09.431Z,20.77
2023-03-05T01:31:22.434Z,20.38
2023-03-05T01:31:35.202Z,19.75
2023-03-05T01:31:48.854Z,18.52
2023-03-05T01:32:02.412Z,19.98
2023-03-05T01:32:15.104Z,24.30
2023-03-05T01:32:27.741Z,28.00
2023-03-05T01:32:40.618Z,25.73
2023-03-05T01:33:11.889Z,20.10
2023-03-05T01:33:24.692Z,20.15
2023-03-05T01:33:38.508Z,20.60
2023-03-05T01:33:52.215Z,20.75
2023-03-05T01:34:04.865Z,17.35
2023-03-05T01:34:18.142Z,17.55
2023-03-05T01:34:30.757Z,19.48
2023-03-05T01:34:43.922Z,21.60
2023-03-05T01:34:57.929Z,24.98
2023-03-05T01:35:17.696Z,25.58
2023-03-05T01:35:30.368Z,21.27
2023-03-05T01:35:43.093Z,19.83
2023-03-05T01:35:55.793Z,22.30
2023-03-05T01:36:13.368Z,21.77
2023-03-05T01:36:26.254Z,19.05
2023-03-05T01:36:41.144Z,20.38
2023-03-05T01:36:54.753Z,21.65
2023-03-05T01:37:07.549Z,20.10
2023-03-05T01:37:20.161Z,17.58
2023-03-05T01:37:32.983Z,15.95
2023-03-05T01:37:45.642Z,17.80
2023-03-05T01:37:58.241Z,17.27
2023-03-05T01:38:10.814Z,15.45
2023-03-05T01:38:23.418Z,15.40
2023-03-05T01:38:37.288Z,17.85
2023-03-05T01:38:49.939Z,20.58
2023-03-05T01:39:02.820Z,21.63
2023-03-05T01:39:15.516Z,17.65
2023-03-05T01:39:28.130Z,15.60
2023-03-05T01:39:40.692Z,13.98
2023-03-05T01:39:54.411Z,13.05
2023-03-05T01:40:08.204Z,13.82
2023-03-05T01:40:26.127Z,16.13
2023-03-05T01:40:38.790Z,16.35
2023-03-05T01:40:51.427Z,16.48
2023-03-05T01:41:04.390Z,17.42
2023-03-05T01:41:19.673Z,18.13
2023-03-05T01:41:33.923Z,17.92
2023-03-05T01:41:46.522Z,17.45
2023-03-05T01:41:59.167Z,17.75
2023-03-05T01:42:12.063Z,18.73
2023-03-05T01:42:24.724Z,16.17
2023-03-05T01:42:37.522Z,14.98
2023-03-05T01:42:57.241Z,15.07
2023-03-05T01:43:24.207Z,13.98
2023-03-05T01:43:37.325Z,15.98
2023-03-05T01:43:52.899Z,16.13
2023-03-05T01:44:05.830Z,16.48
2023-03-05T01:44:23.188Z,15.65
2023-03-05T01:44:37.074Z,15.05
2023-03-05T01:45:04.606Z,16.75
2023-03-05T01:45:18.684Z,17.98
2023-03-05T01:45:32.464Z,16.98
2023-03-05T01:46:21.949Z,15.65
2023-03-05T01:46:37.097Z,16.67
2023-03-05T01:46:50.098Z,20.23
2023-03-05T01:47:02.765Z,19.95
2023-03-05T01:47:15.385Z,17.95
2023-03-05T01:47:28.018Z,16.42
2023-03-05T01:47:40.899Z,17.70
2023-03-05T01:47:53.506Z,20.00
2023-03-05T01:48:07.141Z,19.50
2023-03-05T01:48:19.751Z,17.85
2023-03-05T01:48:32.362Z,16.00
2023-03-05T01:48:49.589Z,15.40
2023-03-05T01:49:11.545Z,16.83
2023-03-05T01:49:26.841Z,15.77
2023-03-05T01:49:42.508Z,17.27
2023-03-05T01:49:55.914Z,19.02
2023-03-05T01:50:13.655Z,19.58
2023-03-05T01:50:27.625Z,16.25
2023-03-05T01:50:40.381Z,14.93
2023-03-05T01:50:53.112Z,16.27
2023-03-05T01:51:05.783Z,15.57
2023-03-05T01:51:19.615Z,18.23
2023-03-05T01:51:35.253Z,19.40
2023-03-05T01:52:02.453Z,18.00
2023-03-05T01:52:18.189Z,18.70
2023-03-05T01:52:33.430Z,17.33
2023-03-05T01:52:53.048Z,16.65
2023-03-05T01:53:07.607Z,18.33
2023-03-05T01:53:20.554Z,20.52
2023-03-05T01:53:33.293Z,19.55
2023-03-05T01:53:47.803Z,18.23
2023-03-05T01:54:02.153Z,18.35
2023-03-05T01:54:17.685Z,18.35
2023-03-05T01:54:35.370Z,16.88
2023-03-05T01:54:52.745Z,16.42
2023-03-05T01:55:08.408Z,17.27
2023-03-05T01:55:24.400Z,17.83
2023-03-05T01:55:37.387Z,17.70
2023-03-05T01:55:50.110Z,18.63
2023-03-05T01:56:03.250Z,18.85
2023-03-05T01:56:16.838Z,20.08
2023-03-05T01:56:30.715Z,21.63
2023-03-05T01:56:45.347Z,22.90
2023-03-05T01:57:02.261Z,20.30
2023-03-05T01:57:17.616Z,19.33
2023-03-05T01:57:35.860Z,19.90
2023-03-05T01:57:52.301Z,18.02
2023-03-05T01:58:08.661Z,19.48
2023-03-05T01:58:21.310Z,19.95
2023-03-05T01:58:34.172Z,18.85
2023-03-05T01:58:47.155Z,16.98
2023-03-05T01:59:03.638Z,15.93
2023-03-05T01:59:18.809Z,16.52
2023-03-05T01:59:31.994Z,17.02
2023-03-05T01:59:47.814Z,16.75
2023-03-05T02:00:05.912Z,16.77
2023-03-05T02:00:23.117Z,17.13
2023-03-05T02:00:41.026Z,17.48
2023-03-05T02:00:55.573Z,16.73
2023-03-05T02:01:08.572Z,16.77
2023-03-05T02:01:21.546Z,16.55
2023-03-05T02:01:39.124Z,17.42
2023-03-05T02:01:55.972Z,17.83
2023-03-05T02:02:10.225Z,20.00
2023-03-05T02:02:23.111Z,21.50
2023-03-05T02:02:35.987Z,18.83
2023-03-05T02:02:51.624Z,17.48
2023-03-05T02:03:07.524Z,16.83
2023-03-05T02:03:22.585Z,18.08
2023-03-05T02:03:36.060Z,19.77
2023-03-05T02:03:49.781Z,20.83
2023-03-05T02:04:02.930Z,21.50
2023-03-05T02:04:18.818Z,23.00
2023-03-05T02:04:41.138Z,19.50
2023-03-05T02:04:57.969Z,18.45
2023-03-05T02:05:17.282Z,18.77
2023-03-05T02:05:32.827Z,18.92
2023-03-05T02:05:45.758Z,20.10
2023-03-05T02:05:58.696Z,22.00
2023-03-05T02:06:11.326Z,19.42
2023-03-05T02:06:24.013Z,18.02
2023-03-05T02:06:38.349Z,20.58
2023-03-05T02:06:50.934Z,20.33
2023-03-05T02:07:04.022Z,17.92
2023-03-05T02:07:17.869Z,17.88
2023-03-05T02:07:31.793Z,18.73
2023-03-05T02:07:45.356Z,17.98
2023-03-05T02:08:00.135Z,18.25
2023-03-05T02:08:14.655Z,17.02
2023-03-05T02:08:27.491Z,15.98
2023-03-05T02:08:40.256Z,16.25
2023-03-05T02:08:52.934Z,16.75
2023-03-05T02:09:05.684Z,18.27
2023-03-05T02:09:23.395Z,18.67
2023-03-05T02:09:38.547Z,15.38
2023-03-05T02:09:52.456Z,15.18
2023-03-05T02:10:16.058Z,16.00
2023-03-05T02:10:30.819Z,16.00
2023-03-05T02:10:46.329Z,15.15
2023-03-05T02:11:00.405Z,15.52
2023-03-05T02:11:13.015Z,15.80
2023-03-05T02:11:26.622Z,16.08
2023-03-05T02:11:40.259Z,15.85
2023-03-05T02:11:53.873Z,16.13
2023-03-05T02:12:07.301Z,15.18
2023-03-05T02:12:20.244Z,14.98
2023-03-05T02:12:32.832Z,13.68
2023-03-05T02:12:45.582Z,14.20
2023-03-05T02:13:01.956Z,16.60
2023-03-05T02:13:18.593Z,16.95
2023-03-05T02:13:34.174Z,17.17
2023-03-05T02:13:47.283Z,15.57
2023-03-05T02:13:59.964Z,14.13
2023-03-05T02:14:12.942Z,13.40
2023-03-05T02:14:26.038Z,14.95
2023-03-05T02:14:41.812Z,15.85
2023-03-05T02:14:59.371Z,14.63
2023-03-05T02:15:12.796Z,13.63
2023-03-05T02:15:25.489Z,14.32
2023-03-05T02:15:38.941Z,14.20
2023-03-05T02:15:53.726Z,14.35
2023-03-05T02:16:08.203Z,14.02
2023-03-05T02:16:21.886Z,13.95
2023-03-05T02:16:36.979Z,15.98
2023-03-05T02:16:49.779Z,15.95
2023-03-05T02:17:02.538Z,14.55
2023-03-05T02:17:15.922Z,14.15
2023-03-05T02:17:29.167Z,15.18
2023-03-05T02:17:42.081Z,13.85
2023-03-05T02:17:55.677Z,14.00
2023-03-05T02:18:09.359Z,13.50
2023-03-05T02:18:22.500Z,12.93
2023-03-05T02:18:35.152Z,14.10
2023-03-05T02:18:47.762Z,15.35
2023-03-05T02:19:00.382Z,14.15
2023-03-05T02:19:14.592Z,14.57
2023-03-05T02:19:27.299Z,14.23
2023-03-05T02:19:48.387Z,15.27
2023-03-05T02:20:06.154Z,17.33
2023-03-05T02:20:22.615Z,15.95
2023-03-05T02:20:46.491Z,18.48
2023-03-05T02:21:03.986Z,15.25
2023-03-05T02:21:28.281Z,16.38
2023-03-05T02:21:43.179Z,15.57
2023-03-05T02:21:55.843Z,16.23
2023-03-05T02:22:15.978Z,15.85
2023-03-05T02:22:28.607Z,15.93
2023-03-05T02:22:41.301Z,16.05
2023-03-05T02:22:54.571Z,15.23
2023-03-05T02:23:07.179Z,15.52
2023-03-05T02:23:22.647Z,16.30
2023-03-05T02:23:38.429Z,16.88
2023-03-05T02:23:51.046Z,19.50
2023-03-05T02:24:03.858Z,18.85
2023-03-05T02:24:18.933Z,16.55
2023-03-05T02:24:36.379Z,18.52
2023-03-05T02:24:49.407Z,16.83
2023-03-05T02:25:03.057Z,14.07
2023-03-05T02:25:18.960Z,12.32
2023-03-05T02:25:31.569Z,16.23
2023-03-05T02:25:44.839Z,17.70
2023-03-05T02:25:57.458Z,16.35
2023-03-05T02:26:10.989Z,17.45
2023-03-05T02:26:23.624Z,16.45
2023-03-05T02:26:36.240Z,17.05
2023-03-05T02:26:49.867Z,17.10
2023-03-05T02:27:03.874Z,16.80
2023-03-05T02:27:16.650Z,15.80
2023-03-05T02:27:35.149Z,16.35
2023-03-05T02:27:54.880Z,16.75
2023-03-05T02:28:18.581Z,16.17
2023-03-05T02:28:37.532Z,17.55
2023-03-05T02:28:54.263Z,17.60
2023-03-05T02:29:09.798Z,15.80
2023-03-05T02:29:22.466Z,15.93
2023-03-05T02:29:40.974Z,16.65
2023-03-05T02:29:53.722Z,15.93
2023-03-05T02:30:08.546Z,15.98
2023-03-05T02:30:21.561Z,17.27
2023-03-05T02:30:35.489Z,16.42
2023-03-05T02:30:48.829Z,15.10
2023-03-05T02:31:01.686Z,15.18
2023-03-05T02:31:17.269Z,13.98
2023-03-05T02:31:31.257Z,15.38
2023-03-05T02:31:45.279Z,15.10
2023-03-05T02:31:58.084Z,14.52
2023-03-05T02:32:11.021Z,15.20
2023-03-05T02:32:23.899Z,14.40
2023-03-05T02:32:36.570Z,15.13
2023-03-05T02:32:49.286Z,14.98
2023-03-05T02:33:02.489Z,15.23
2023-03-05T02:33:18.006Z,15.23
2023-03-05T02:33:30.636Z,15.32
2023-03-05T02:33:43.610Z,14.93
2023-03-05T02:33:56.201Z,13.90
2023-03-05T02:34:08.968Z,14.27
2023-03-05T02:34:22.693Z,16.42
2023-03-05T02:34:35.411Z,16.45
2023-03-05T02:34:48.991Z,15.25
2023-03-05T02:35:01.625Z,15.18
2023-03-05T02:35:14.486Z,16.90
2023-03-05T02:35:27.202Z,15.57
2023-03-05T02:35:40.009Z,16.88
2023-03-05T02:35:52.829Z,18.40
2023-03-05T02:36:08.107Z,18.75
2023-03-05T02:36:20.822Z,17.70
2023-03-05T02:36:34.730Z,18.13
2023-03-05T02:36:47.622Z,21.30
2023-03-05T02:37:00.416Z,21.58
2023-03-05T02:37:13.029Z,21.90
2023-03-05T02:37:25.667Z,23.25
2023-03-05T02:37:38.331Z,22.83
2023-03-05T02:37:51.302Z,20.58
2023-03-05T02:38:04.174Z,19.67
2023-03-05T02:38:18.869Z,18.77
2023-03-05T02:38:32.608Z,17.48
2023-03-05T02:38:46.559Z,15.18
2023-03-05T02:38:59.236Z,16.17
2023-03-05T02:39:11.862Z,18.73
2023-03-05T02:39:24.540Z,18.40
2023-03-05T02:39:37.787Z,17.50
2023-03-05T02:39:51.436Z,14.55
2023-03-05T02:40:04.912Z,12.68
2023-03-05T02:40:17.789Z,14.02
2023-03-05T02:40:30.432Z,14.77
2023-03-05T02:40:43.510Z,13.50
2023-03-05T02:40:56.136Z,14.75
2023-03-05T02:41:08.958Z,17.27
2023-03-05T02:41:22.532Z,17.00
2023-03-05T02:41:35.404Z,14.50
2023-03-05T02:41:48.012Z,14.45
2023-03-05T02:42:00.733Z,14.75
2023-03-05T02:42:13.344Z,15.45
2023-03-05T02:42:26.012Z,15.65
2023-03-05T02:42:39.845Z,16.55
2023-03-05T02:42:52.584Z,16.85
2023-03-05T02:43:05.717Z,15.05
2023-03-05T02:43:18.323Z,13.40
2023-03-05T02:43:31.013Z,13.38
2023-03-05T02:43:43.630Z,13.43
2023-03-05T02:43:56.297Z,12.68
2023-03-05T02:44:10.221Z,12.63
2023-03-05T02:44:23.316Z,13.88
2023-03-05T02:44:35.982Z,16.08
2023-03-05T02:44:48.572Z,15.32
2023-03-05T02:45:01.233Z,13.07
2023-03-05T02:45:13.937Z,12.98
2023-03-05T02:45:27.808Z,12.13
2023-03-05T02:45:40.555Z,12.88
2023-03-05T02:45:53.239Z,15.27
2023-03-05T02:46:07.795Z,15.77
2023-03-05T02:46:20.519Z,13.20
2023-03-05T02:46:33.238Z,12.52
2023-03-05T02:46:45.845Z,11.77
2023-03-05T02:46:59.436Z,10.90
2023-03-05T02:47:12.148Z,11.35
2023-03-05T02:47:24.863Z,12.40
2023-03-05T02:47:37.443Z,13.75
2023-03-05T02:47:50.075Z,13.40
2023-03-05T02:48:02.727Z,12.27
2023-03-05T02:48:16.759Z,10.73
2023-03-05T02:48:29.435Z,11.48
2023-03-05T02:48:42.060Z,12.35
2023-03-05T02:48:54.695Z,12.63
2023-03-05T02:49:07.330Z,13.10
2023-03-05T02:49:20.100Z,12.27
2023-03-05T02:49:33.759Z,11.75
2023-03-05T02:49:46.348Z,12.88
2023-03-05T02:49:59.436Z,13.18
2023-03-05T02:50:12.725Z,13.50
2023-03-05T02:50:27.507Z,14.10
2023-03-05T02:50:42.024Z,13.52
2023-03-05T02:50:56.051Z,11.45
2023-03-05T02:51:11.169Z,10.85
2023-03-05T02:51:23.762Z,11.15
2023-03-05T02:51:36.350Z,13.05
2023-03-05T02:51:49.188Z,12.00
2023-03-05T02:52:01.781Z,11.55
2023-03-05T02:52:14.372Z,11.88
2023-03-05T02:52:28.706Z,10.88
2023-03-05T02:52:42.279Z,9.92
2023-03-05T02:52:55.135Z,9.93
2023-03-05T02:53:08.107Z,12.73
2023-03-05T02:53:20.821Z,13.02
2023-03-05T02:53:33.597Z,11.60
2023-03-05T02:53:46.213Z,11.88
2023-03-05T02:53:58.813Z,11.23
2023-03-05T02:54:12.698Z,11.05
2023-03-05T02:54:25.309Z,11.57
2023-03-05T02:54:38.026Z,10.57
2023-03-05T02:54:50.590Z,11.25
2023-03-05T02:55:03.384Z,10.88
2023-03-05T02:55:16.101Z,11.57
2023-03-05T02:55:28.766Z,11.18
2023-03-05T02:55:42.722Z,12.27
2023-03-05T02:55:55.368Z,10.73
2023-03-05T02:56:08.117Z,11.13
2023-03-05T02:56:20.709Z,12.70
2023-03-05T02:56:33.411Z,12.95
2023-03-05T02:56:46.000Z,13.57
2023-03-05T02:56:58.634Z,12.68